createdAt,value
2023-03-16T00:00:37.397Z,4.83
2023-03-16T00:01:39.992Z,5.17
2023-03-16T00:02:42.868Z,5.92
2023-03-16T00:03:45.362Z,6.76
2023-03-16T00:04:47.942Z,5.69
2023-03-16T00:05:50.495Z,5.68
2023-03-16T00:06:53.475Z,5.20
2023-03-16T00:07:56.038Z,5.21
2023-03-16T00:08:58.593Z,5.79
2023-03-16T00:10:01.424Z,6.46
2023-03-16T00:11:04.151Z,6.02
2023-03-16T00:12:06.714Z,5.80
2023-03-16T00:13:09.263Z,5.85
2023-03-16T00:14:11.816Z,5.12
2023-03-16T00:15:14.430Z,5.94
2023-03-16T00:16:17.493Z,5.47
2023-03-16T00:17:20.476Z,5.91
2023-03-16T00:18:23.348Z,6.09
2023-03-16T00:19:25.918Z,5.42
2023-03-16T00:20:29.232Z,5.69
2023-03-16T00:21:32.028Z,6.54
2023-03-16T00:22:34.499Z,7.43
2023-03-16T00:23:37.049Z,6.69
2023-03-16T00:24:39.600Z,6.71
2023-03-16T00:25:42.112Z,6.32
2023-03-16T00:26:45.004Z,6.15
2023-03-16T00:27:47.613Z,6.13
2023-03-16T00:28:50.171Z,6.65
2023-03-16T00:29:52.719Z,5.79
2023-03-16T00:30:55.352Z,5.80
2023-03-16T00:31:58.017Z,5.81
2023-03-16T00:33:00.779Z,5.20
2023-03-16T00:34:03.507Z,5.49
2023-03-16T00:35:08.210Z,5.86
2023-03-16T00:36:10.462Z,4.75
2023-03-16T00:37:13.085Z,5.34
2023-03-16T00:38:15.606Z,5.05
2023-03-16T00:39:18.157Z,5.59
2023-03-16T00:40:21.041Z,5.39
2023-03-16T00:41:23.649Z,4.93
2023-03-16T00:42:26.195Z,5.52
2023-03-16T00:43:28.751Z,5.61
2023-03-16T00:44:31.209Z,6.42
2023-03-16T00:45:33.786Z,5.92
2023-03-16T00:46:36.491Z,6.19
2023-03-16T00:47:39.076Z,6.41
2023-03-16T00:48:41.628Z,6.67
2023-03-16T00:49:44.230Z,5.09
2023-03-16T00:50:47.061Z,6.38
2023-03-16T00:51:49.623Z,5.99
2023-03-16T00:52:52.209Z,6.52
2023-03-16T00:53:54.794Z,6.54
2023-03-16T00:54:57.358Z,6.79
2023-03-16T00:55:59.905Z,5.65
2023-03-16T00:57:02.708Z,6.57
2023-03-16T00:58:05.280Z,6.24
2023-03-16T00:59:07.898Z,6.44
2023-03-16T01:00:11.120Z,5.27
2023-03-16T01:01:13.775Z,6.43
2023-03-16T01:02:16.490Z,7.54
2023-03-16T01:03:19.138Z,6.49
2023-03-16T01:04:21.866Z,7.05
2023-03-16T01:05:24.432Z,5.48
2023-03-16T01:06:27.503Z,5.47
2023-03-16T01:07:30.071Z,6.45
2023-03-16T01:08:32.993Z,6.34
2023-03-16T01:09:35.566Z,6.33
2023-03-16T01:10:38.444Z,5.56
2023-03-16T01:11:41.013Z,5.75
2023-03-16T01:12:43.573Z,7.52
2023-03-16T01:13:46.141Z,6.33
2023-03-16T01:14:48.721Z,5.95
2023-03-16T01:15:51.284Z,5.97
2023-03-16T01:16:54.227Z,6.32
2023-03-16T01:17:57.060Z,6.02
2023-03-16T01:18:59.590Z,5.44
2023-03-16T01:20:02.163Z,6.05
2023-03-16T01:21:04.750Z,6.20
2023-03-16T01:22:07.315Z,6.45
2023-03-16T01:23:09.879Z,5.91
2023-03-16T01:24:12.434Z,6.62
2023-03-16T01:25:14.993Z,5.55
2023-03-16T01:26:17.866Z,5.24
2023-03-16T01:27:20.427Z,5.59
2023-03-16T01:28:22.992Z,5.36
2023-03-16T01:29:25.645Z,5.59
2023-03-16T01:30:28.549Z,5.99
2023-03-16T01:31:31.511Z,5.72
2023-03-16T01:32:34.122Z,6.09
2023-03-16T01:33:36.834Z,5.48
2023-03-16T01:34:39.383Z,5.69
2023-03-16T01:35:42.027Z,5.05
2023-03-16T01:36:44.824Z,5.91
2023-03-16T01:37:47.387Z,6.78
2023-03-16T01:38:49.945Z,5.74
2023-03-16T01:39:52.614Z,5.15
2023-03-16T01:40:55.185Z,5.45
2023-03-16T01:41:58.103Z,5.69
2023-03-16T01:43:00.699Z,5.33
2023-03-16T01:44:03.232Z,5.79
2023-03-16T01:45:05.909Z,5.67
2023-03-16T01:46:10.193Z,5.39
2023-03-16T01:47:12.815Z,4.75
2023-03-16T01:48:15.365Z,5.65
2023-03-16T01:49:17.929Z,6.20
2023-03-16T01:50:20.741Z,4.97
2023-03-16T01:51:23.424Z,6.73
2023-03-16T01:52:25.981Z,6.63
2023-03-16T01:53:28.542Z,5.86
2023-03-16T01:54:31.215Z,6.02
2023-03-16T01:55:33.781Z,5.59
2023-03-16T01:56:36.495Z,6.84
2023-03-16T01:57:39.060Z,7.35
2023-03-16T01:58:41.618Z,5.89
2023-03-16T01:59:44.263Z,6.66
2023-03-16T02:00:47.131Z,6.12
2023-03-16T02:01:50.074Z,5.58
2023-03-16T02:02:53.028Z,5.71
2023-03-16T02:03:55.648Z,5.07
2023-03-16T02:04:58.800Z,5.67
2023-03-16T02:06:01.366Z,5.69
2023-03-16T02:07:04.150Z,5.04
2023-03-16T02:08:06.715Z,5.61
2023-03-16T02:09:09.179Z,5.05
2023-03-16T02:10:12.117Z,5.85
2023-03-16T02:11:14.690Z,5.33
2023-03-16T02:12:17.240Z,5.49
2023-03-16T02:13:19.845Z,5.53
2023-03-16T02:14:22.392Z,4.84
2023-03-16T02:15:25.004Z,5.27
2023-03-16T02:16:27.882Z,4.86
2023-03-16T02:17:30.439Z,5.25
2023-03-16T02:18:33.000Z,6.19
2023-03-16T02:19:35.571Z,4.42
2023-03-16T02:20:38.589Z,4.94
2023-03-16T02:21:41.042Z,5.67
2023-03-16T02:22:43.673Z,4.93
2023-03-16T02:23:46.234Z,5.51
2023-03-16T02:24:48.789Z,5.52
2023-03-16T02:25:51.421Z,4.56
2023-03-16T02:26:54.211Z,4.49
2023-03-16T02:27:56.796Z,7.37
2023-03-16T02:28:59.359Z,4.72
2023-03-16T02:30:01.976Z,7.39
2023-03-16T02:31:04.584Z,4.87
2023-03-16T02:32:07.196Z,4.04
2023-03-16T02:33:09.765Z,4.85
2023-03-16T02:34:12.217Z,6.28
2023-03-16T02:35:14.791Z,6.52
2023-03-16T02:36:17.622Z,4.26
2023-03-16T02:37:20.189Z,4.59
2023-03-16T02:38:22.757Z,5.84
2023-03-16T02:39:25.507Z,5.10
2023-03-16T02:40:28.417Z,5.38
2023-03-16T02:41:31.374Z,4.78
2023-03-16T02:42:33.941Z,5.57
2023-03-16T02:43:36.488Z,4.73
2023-03-16T02:44:39.346Z,5.91
2023-03-16T02:45:41.909Z,5.64
2023-03-16T02:46:44.656Z,6.93
2023-03-16T02:47:47.274Z,5.39
2023-03-16T02:48:49.833Z,4.79
2023-03-16T02:49:52.494Z,5.31
2023-03-16T02:50:55.267Z,5.87
2023-03-16T02:51:57.834Z,6.86
2023-03-16T02:53:00.384Z,6.16
2023-03-16T02:54:02.975Z,5.07
2023-03-16T02:55:05.541Z,5.79
2023-03-16T02:56:08.604Z,5.97
2023-03-16T02:57:11.295Z,7.32
2023-03-16T02:58:13.834Z,6.45
2023-03-16T02:59:16.436Z,6.53
2023-03-16T03:00:19.073Z,5.76
2023-03-16T03:01:21.675Z,4.50
2023-03-16T03:02:24.348Z,5.51
2023-03-16T03:03:26.971Z,7.61
2023-03-16T03:04:29.664Z,6.14
2023-03-16T03:05:32.118Z,5.78
2023-03-16T03:06:35.012Z,4.81
2023-03-16T03:07:37.598Z,6.67
2023-03-16T03:08:40.167Z,5.08
2023-03-16T03:09:42.827Z,5.46
2023-03-16T03:10:45.721Z,6.66
2023-03-16T03:11:48.283Z,5.20
2023-03-16T03:12:50.875Z,4.84
2023-03-16T03:13:53.385Z,5.12
2023-03-16T03:14:55.937Z,4.87
2023-03-16T03:15:58.587Z,5.09
2023-03-16T03:17:01.720Z,5.33
2023-03-16T03:18:04.275Z,5.99
2023-03-16T03:19:06.852Z,4.87
2023-03-16T03:20:10.069Z,8.25
2023-03-16T03:21:12.628Z,5.13
2023-03-16T03:22:15.200Z,5.75
2023-03-16T03:23:17.754Z,6.05
2023-03-16T03:24:20.306Z,5.03
2023-03-16T03:25:22.867Z,5.19
2023-03-16T03:26:25.728Z,5.11
2023-03-16T03:27:28.328Z,6.42
2023-03-16T03:28:31.088Z,5.98
2023-03-16T03:29:33.646Z,6.04
2023-03-16T03:30:36.459Z,6.46
2023-03-16T03:31:39.027Z,6.84
2023-03-16T03:32:41.640Z,4.78
2023-03-16T03:33:44.440Z,5.37
2023-03-16T03:34:46.998Z,5.74
2023-03-16T03:35:49.622Z,5.45
2023-03-16T03:36:52.455Z,5.03
2023-03-16T03:37:55.004Z,5.15
2023-03-16T03:38:57.571Z,5.64
2023-03-16T03:40:00.182Z,4.92
2023-03-16T03:41:02.677Z,5.43
2023-03-16T03:42:05.266Z,6.43
2023-03-16T03:43:07.836Z,5.82
2023-03-16T03:44:10.442Z,5.41
2023-03-16T03:45:13.065Z,6.06
2023-03-16T03:46:17.224Z,6.19
2023-03-16T03:47:20.038Z,6.13
2023-03-16T03:48:22.630Z,5.63
2023-03-16T03:49:25.194Z,6.14
2023-03-16T03:50:28.223Z,6.95
2023-03-16T03:51:31.078Z,8.50
2023-03-16T03:52:33.629Z,19.53
2023-03-16T03:53:36.181Z,19.47
2023-03-16T03:54:38.738Z,22.12
2023-03-16T03:55:41.302Z,27.78
2023-03-16T03:56:43.846Z,25.28
2023-03-16T03:57:46.401Z,21.39
2023-03-16T03:58:49.029Z,21.03
2023-03-16T03:59:51.546Z,13.51
2023-03-16T04:00:54.536Z,8.34
2023-03-16T04:01:57.160Z,6.39
2023-03-16T04:02:59.902Z,7.05
2023-03-16T04:04:02.755Z,9.88
2023-03-16T04:05:05.452Z,10.59
2023-03-16T04:06:08.431Z,12.95
2023-03-16T04:07:11.056Z,14.79
2023-03-16T04:08:13.623Z,13.03
2023-03-16T04:09:16.167Z,16.36
2023-03-16T04:10:19.028Z,14.83
2023-03-16T04:11:21.595Z,14.69
2023-03-16T04:12:24.255Z,12.29
2023-03-16T04:13:26.822Z,10.79
2023-03-16T04:14:29.407Z,11.03
2023-03-16T04:15:31.881Z,10.80
2023-03-16T04:16:34.758Z,12.66
2023-03-16T04:17:37.627Z,10.32
2023-03-16T04:18:40.185Z,10.69
2023-03-16T04:19:42.812Z,12.04
2023-03-16T04:20:45.508Z,12.08
2023-03-16T04:21:48.132Z,11.99
2023-03-16T04:22:50.659Z,13.14
2023-03-16T04:23:53.202Z,13.81
2023-03-16T04:24:55.850Z,13.94
2023-03-16T04:25:58.458Z,16.39
2023-03-16T04:27:01.185Z,18.22
2023-03-16T04:28:03.738Z,17.30
2023-03-16T04:29:06.396Z,17.16
2023-03-16T04:30:09.537Z,18.62
2023-03-16T04:31:12.275Z,17.15
2023-03-16T04:32:15.151Z,16.53
2023-03-16T04:33:17.733Z,15.83
2023-03-16T04:34:20.311Z,16.75
2023-03-16T04:35:22.874Z,16.12
2023-03-16T04:36:25.901Z,14.71
2023-03-16T04:37:28.445Z,14.43
2023-03-16T04:38:30.979Z,11.51
2023-03-16T04:39:33.445Z,11.13
2023-03-16T04:40:36.494Z,13.06
2023-03-16T04:41:39.081Z,11.43
2023-03-16T04:42:41.641Z,11.29
2023-03-16T04:43:44.317Z,11.66
2023-03-16T04:44:46.920Z,11.51
2023-03-16T04:45:49.490Z,12.73
2023-03-16T04:46:52.032Z,13.45
2023-03-16T04:47:54.643Z,12.93
2023-03-16T04:48:57.197Z,12.09
2023-03-16T04:49:59.763Z,12.15
2023-03-16T04:51:02.321Z,13.92
2023-03-16T04:52:04.900Z,13.68
2023-03-16T04:53:07.430Z,12.75
2023-03-16T04:54:10.013Z,14.15
2023-03-16T04:55:12.440Z,12.69
2023-03-16T04:56:15.244Z,11.32
2023-03-16T04:57:17.859Z,12.63
2023-03-16T04:58:20.431Z,8.82
2023-03-16T04:59:22.987Z,7.80
2023-03-16T05:00:25.724Z,8.06
2023-03-16T05:01:28.595Z,7.78
2023-03-16T05:02:31.252Z,6.90
2023-03-16T05:03:33.839Z,6.73
2023-03-16T05:04:36.400Z,6.65
2023-03-16T05:05:39.107Z,7.59
2023-03-16T05:06:41.865Z,7.26
2023-03-16T05:07:44.514Z,7.45
2023-03-16T05:08:47.059Z,7.43
2023-03-16T05:09:49.661Z,6.87
2023-03-16T05:10:52.302Z,6.93
2023-03-16T05:11:54.855Z,5.83
2023-03-16T05:12:57.381Z,6.47
2023-03-16T05:13:59.931Z,8.34
2023-03-16T05:15:02.790Z,6.54
2023-03-16T05:16:05.627Z,6.36
2023-03-16T05:17:08.448Z,6.71
2023-03-16T05:18:10.985Z,6.20
2023-03-16T05:19:13.541Z,6.99
2023-03-16T05:20:16.838Z,5.59
2023-03-16T05:21:19.672Z,6.09
2023-03-16T05:22:22.227Z,6.02
2023-03-16T05:23:24.840Z,7.74
2023-03-16T05:24:27.385Z,6.01
2023-03-16T05:25:29.938Z,7.75
2023-03-16T05:26:32.747Z,7.03
2023-03-16T05:27:35.334Z,6.71
2023-03-16T05:28:37.775Z,6.65
2023-03-16T05:29:40.340Z,7.52
2023-03-16T05:30:43.310Z,7.26
2023-03-16T05:31:45.861Z,6.90
2023-03-16T05:32:48.565Z,6.73
2023-03-16T05:33:51.403Z,7.77
2023-03-16T05:34:54.013Z,6.61
2023-03-16T05:35:56.634Z,7.27
2023-03-16T05:36:59.683Z,7.87
2023-03-16T05:38:02.239Z,6.81
2023-03-16T05:39:04.816Z,6.75
2023-03-16T05:40:07.719Z,6.81
2023-03-16T05:41:10.401Z,6.70
2023-03-16T05:42:12.987Z,7.79
2023-03-16T05:43:15.750Z,6.99
2023-03-16T05:44:18.303Z,7.54
2023-03-16T05:45:20.868Z,8.14
2023-03-16T05:46:23.738Z,7.86
2023-03-16T05:47:26.690Z,7.82
2023-03-16T05:48:29.246Z,9.29
2023-03-16T05:49:31.963Z,8.04
2023-03-16T05:50:34.683Z,8.82
2023-03-16T05:51:37.294Z,7.27
2023-03-16T05:52:40.050Z,7.27
2023-03-16T05:53:43.725Z,6.74
2023-03-16T05:54:46.727Z,7.05
2023-03-16T05:55:49.727Z,6.86
2023-03-16T05:56:52.323Z,7.18
2023-03-16T05:57:56.097Z,7.53
2023-03-16T05:58:58.850Z,7.68
2023-03-16T06:00:01.451Z,5.74
2023-03-16T06:01:04.080Z,8.13
2023-03-16T06:02:06.641Z,6.86
2023-03-16T06:03:09.984Z,7.29
2023-03-16T06:04:13.417Z,7.50
2023-03-16T06:05:16.391Z,8.78
2023-03-16T06:06:20.479Z,6.16
2023-03-16T06:07:23.704Z,7.61
2023-03-16T06:08:26.875Z,6.99
2023-03-16T06:09:29.688Z,5.74
2023-03-16T06:10:34.335Z,6.54
2023-03-16T06:11:36.887Z,7.10
2023-03-16T06:12:39.461Z,7.45
2023-03-16T06:13:42.237Z,6.33
2023-03-16T06:14:45.105Z,5.73
2023-03-16T06:15:47.783Z,8.07
2023-03-16T06:16:50.772Z,7.96
2023-03-16T06:17:53.344Z,8.25
2023-03-16T06:18:57.869Z,9.16
2023-03-16T06:20:00.384Z,10.38
2023-03-16T06:21:02.958Z,8.95
2023-03-16T06:22:05.578Z,8.25
2023-03-16T06:23:08.198Z,10.01
2023-03-16T06:24:10.782Z,7.25
2023-03-16T06:25:13.327Z,11.21
2023-03-16T06:26:16.218Z,7.55
2023-03-16T06:27:18.752Z,7.93
2023-03-16T06:28:21.310Z,7.07
2023-03-16T06:29:23.879Z,9.02
2023-03-16T06:30:27.071Z,7.72
2023-03-16T06:31:29.861Z,7.46
2023-03-16T06:32:32.709Z,7.79
2023-03-16T06:33:35.262Z,8.46
2023-03-16T06:34:38.395Z,8.83
2023-03-16T06:35:41.291Z,7.53
2023-03-16T06:36:44.121Z,9.10
2023-03-16T06:37:46.742Z,9.25
2023-03-16T06:38:49.291Z,7.47
2023-03-16T06:39:51.852Z,8.07
2023-03-16T06:40:54.835Z,7.53
2023-03-16T06:41:57.447Z,7.66
2023-03-16T06:42:59.978Z,7.13
2023-03-16T06:44:02.539Z,7.50
2023-03-16T06:45:05.114Z,6.89
2023-03-16T06:46:08.225Z,7.46
2023-03-16T06:47:11.156Z,5.89
2023-03-16T06:48:13.746Z,6.53
2023-03-16T06:49:16.413Z,7.69
2023-03-16T06:50:19.443Z,6.80
2023-03-16T06:51:22.032Z,7.81
2023-03-16T06:52:24.570Z,7.23
2023-03-16T06:53:27.348Z,7.24
2023-03-16T06:54:29.963Z,6.55
2023-03-16T06:55:32.532Z,8.15
2023-03-16T06:56:35.459Z,6.84
2023-03-16T06:57:38.028Z,8.49
2023-03-16T06:58:40.527Z,6.65
2023-03-16T06:59:43.106Z,7.31
2023-03-16T07:00:46.158Z,7.74
2023-03-16T07:01:49.157Z,6.46
2023-03-16T07:02:51.704Z,8.10
2023-03-16T07:03:54.323Z,7.85
2023-03-16T07:04:56.853Z,7.43
2023-03-16T07:05:59.409Z,7.39
2023-03-16T07:07:02.158Z,7.47
2023-03-16T07:08:04.726Z,7.75
2023-03-16T07:09:07.334Z,7.30
2023-03-16T07:10:10.109Z,7.78
2023-03-16T07:11:12.659Z,7.07
2023-03-16T07:12:15.222Z,7.81
2023-03-16T07:13:17.783Z,10.37
2023-03-16T07:14:20.418Z,7.51
2023-03-16T07:15:22.974Z,7.24
2023-03-16T07:16:25.895Z,7.66
2023-03-16T07:17:28.510Z,7.49
2023-03-16T07:18:31.049Z,8.93
2023-03-16T07:19:33.685Z,7.37
2023-03-16T07:20:36.512Z,7.59
2023-03-16T07:21:39.140Z,8.05
2023-03-16T07:22:41.904Z,7.47
2023-03-16T07:23:44.523Z,8.69
2023-03-16T07:24:47.105Z,8.35
2023-03-16T07:25:49.713Z,7.10
2023-03-16T07:26:52.601Z,7.58
2023-03-16T07:27:55.462Z,7.31
2023-03-16T07:28:58.285Z,8.19
2023-03-16T07:30:00.931Z,7.11
2023-03-16T07:31:04.526Z,7.13
2023-03-16T07:32:07.564Z,8.58
2023-03-16T07:33:10.406Z,7.89
2023-03-16T07:34:13.260Z,7.09
2023-03-16T07:35:15.992Z,8.31
2023-03-16T07:36:19.122Z,8.68
2023-03-16T07:37:25.294Z,7.75
2023-03-16T07:38:26.032Z,11.58
2023-03-16T07:39:28.616Z,7.59
2023-03-16T07:40:31.864Z,9.44
2023-03-16T07:41:34.500Z,12.28
2023-03-16T07:42:37.045Z,11.31
2023-03-16T07:43:39.606Z,9.87
2023-03-16T07:44:42.153Z,8.77
2023-03-16T07:45:44.794Z,8.03
2023-03-16T07:46:47.494Z,9.35
2023-03-16T07:47:50.050Z,11.76
2023-03-16T07:48:52.604Z,17.97
2023-03-16T07:49:55.064Z,17.38
2023-03-16T07:50:57.655Z,17.81
2023-03-16T07:52:00.257Z,10.87
2023-03-16T07:53:02.847Z,11.81
2023-03-16T07:54:05.672Z,11.16
2023-03-16T07:55:08.130Z,14.63
2023-03-16T07:56:11.944Z,17.69
2023-03-16T07:57:14.405Z,17.17
2023-03-16T07:58:16.988Z,15.22
2023-03-16T07:59:20.970Z,14.29
2023-03-16T08:00:24.152Z,15.22
2023-03-16T08:01:27.094Z,15.53
2023-03-16T08:02:29.671Z,16.17
2023-03-16T08:03:32.397Z,14.20
2023-03-16T08:04:35.196Z,14.57
2023-03-16T08:05:37.757Z,12.49
2023-03-16T08:06:40.775Z,11.30
2023-03-16T08:07:43.350Z,15.51
2023-03-16T08:08:45.892Z,16.37
2023-03-16T08:09:48.461Z,17.34
2023-03-16T08:10:51.439Z,13.01
2023-03-16T08:11:54.578Z,10.52
2023-03-16T08:12:57.182Z,13.69
2023-03-16T08:13:59.813Z,12.14
2023-03-16T08:15:02.367Z,11.74
2023-03-16T08:16:05.247Z,11.43
2023-03-16T08:17:07.789Z,9.88
2023-03-16T08:18:10.340Z,9.54
2023-03-16T08:19:12.904Z,7.73
2023-03-16T08:20:16.613Z,7.88
2023-03-16T08:21:19.176Z,8.38
2023-03-16T08:22:21.780Z,8.97
2023-03-16T08:23:24.420Z,7.02
2023-03-16T08:24:31.445Z,8.41
2023-03-16T08:25:34.007Z,8.32
2023-03-16T08:26:39.516Z,7.66
2023-03-16T08:27:41.730Z,8.01
2023-03-16T08:28:44.465Z,11.97
2023-03-16T08:29:47.072Z,8.40
2023-03-16T08:30:49.826Z,9.09
2023-03-16T08:31:52.329Z,8.37
2023-03-16T08:32:54.979Z,8.90
2023-03-16T08:33:57.785Z,9.28
2023-03-16T08:35:00.463Z,8.54
2023-03-16T08:36:02.998Z,8.27
2023-03-16T08:37:05.572Z,9.20
2023-03-16T08:38:08.264Z,15.84
2023-03-16T08:39:12.100Z,15.29
2023-03-16T08:40:15.728Z,9.91
2023-03-16T08:41:18.304Z,8.89
2023-03-16T08:42:20.885Z,8.73
2023-03-16T08:43:23.463Z,9.28
2023-03-16T08:44:26.021Z,8.69
2023-03-16T08:45:28.582Z,13.35
2023-03-16T08:46:31.417Z,11.41
2023-03-16T08:47:34.025Z,10.24
2023-03-16T08:48:36.583Z,12.78
2023-03-16T08:49:39.130Z,8.30
2023-03-16T08:50:42.069Z,8.86
2023-03-16T08:51:45.087Z,9.49
2023-03-16T08:52:47.742Z,8.71
2023-03-16T08:53:50.347Z,8.17
2023-03-16T08:55:02.485Z,7.16
2023-03-16T08:55:56.996Z,9.36
2023-03-16T08:56:59.916Z,11.19
2023-03-16T08:58:02.476Z,10.14
2023-03-16T08:59:05.151Z,9.23
2023-03-16T09:00:08.235Z,9.13
2023-03-16T09:01:10.812Z,10.55
2023-03-16T09:02:13.393Z,10.88
2023-03-16T09:03:15.920Z,13.37
2023-03-16T09:04:18.583Z,9.57
2023-03-16T09:05:21.270Z,8.72
2023-03-16T09:06:24.201Z,9.20
2023-03-16T09:07:26.747Z,7.59
2023-03-16T09:08:29.314Z,8.36
2023-03-16T09:09:31.927Z,7.46
2023-03-16T09:10:34.734Z,8.85
2023-03-16T09:11:37.278Z,8.47
2023-03-16T09:12:39.858Z,8.67
2023-03-16T09:13:42.407Z,7.73
2023-03-16T09:14:45.091Z,8.55
2023-03-16T09:15:47.656Z,8.72
2023-03-16T09:16:50.281Z,10.94
2023-03-16T09:17:52.862Z,11.81
2023-03-16T09:18:55.418Z,8.73
2023-03-16T09:20:08.113Z,9.45
2023-03-16T09:21:02.496Z,9.28
2023-03-16T09:22:05.148Z,9.52
2023-03-16T09:23:07.700Z,8.17
2023-03-16T09:24:10.202Z,7.77
2023-03-16T09:25:12.956Z,10.34
2023-03-16T09:26:15.837Z,11.16
2023-03-16T09:27:18.509Z,10.89
2023-03-16T09:28:22.224Z,9.54
2023-03-16T09:29:25.169Z,9.65
2023-03-16T09:30:28.034Z,9.87
2023-03-16T09:31:30.743Z,9.84
2023-03-16T09:32:33.441Z,17.35
2023-03-16T09:33:36.400Z,23.72
2023-03-16T09:34:39.019Z,37.64
2023-03-16T09:35:41.662Z,17.75
2023-03-16T09:36:44.407Z,31.07
2023-03-16T09:38:04.763Z,14.96
2023-03-16T09:38:51.373Z,11.66
2023-03-16T09:39:57.931Z,15.06
2023-03-16T09:40:58.536Z,27.78
2023-03-16T09:42:01.115Z,13.89
2023-03-16T09:43:08.210Z,11.04
2023-03-16T09:44:10.689Z,9.49
2023-03-16T09:45:13.221Z,9.31
2023-03-16T09:46:15.936Z,10.19
2023-03-16T09:47:18.774Z,9.26
2023-03-16T09:48:21.576Z,9.56
2023-03-16T09:49:24.167Z,9.39
2023-03-16T09:50:30.294Z,24.16
2023-03-16T09:51:31.662Z,32.61
2023-03-16T09:52:34.338Z,15.58
2023-03-16T09:53:36.900Z,12.77
2023-03-16T09:54:39.470Z,25.48
2023-03-16T09:55:42.032Z,23.21
2023-03-16T09:56:44.943Z,9.53
2023-03-16T09:57:47.514Z,9.01
2023-03-16T09:58:50.082Z,9.97
2023-03-16T09:59:52.699Z,8.81
2023-03-16T10:00:55.734Z,9.53
2023-03-16T10:01:58.381Z,9.42
2023-03-16T10:03:00.928Z,9.19
2023-03-16T10:04:03.533Z,9.97
2023-03-16T10:05:06.323Z,9.61
2023-03-16T10:06:08.973Z,10.98
2023-03-16T10:07:11.612Z,9.10
2023-03-16T10:08:14.179Z,18.09
2023-03-16T10:09:16.736Z,10.45
2023-03-16T10:10:20.012Z,9.21
2023-03-16T10:11:22.480Z,8.37
2023-03-16T10:12:25.100Z,17.15
2023-03-16T10:13:27.695Z,12.13
2023-03-16T10:14:30.255Z,8.63
2023-03-16T10:15:32.829Z,8.29
2023-03-16T10:16:35.807Z,11.71
2023-03-16T10:17:38.697Z,26.57
2023-03-16T10:18:41.292Z,22.87
2023-03-16T10:19:43.833Z,11.55
2023-03-16T10:20:46.608Z,12.99
2023-03-16T10:21:49.212Z,25.89
2023-03-16T10:22:52.038Z,50.12
2023-03-16T10:23:54.613Z,66.64
2023-03-16T10:24:57.202Z,43.53
2023-03-16T10:25:59.747Z,31.63
2023-03-16T10:27:02.333Z,30.25
2023-03-16T10:28:04.999Z,15.85
2023-03-16T10:29:07.562Z,13.91
2023-03-16T10:30:10.627Z,10.38
2023-03-16T10:31:13.236Z,9.11
2023-03-16T10:32:16.082Z,9.26
2023-03-16T10:33:18.880Z,9.63
2023-03-16T10:34:21.713Z,10.51
2023-03-16T10:35:24.273Z,10.43
2023-03-16T10:36:26.970Z,8.61
2023-03-16T10:37:29.546Z,8.86
2023-03-16T10:38:32.161Z,8.04
2023-03-16T10:39:34.890Z,10.16
2023-03-16T10:40:37.795Z,10.72
2023-03-16T10:41:40.378Z,12.88
2023-03-16T10:42:42.967Z,10.68
2023-03-16T10:43:45.588Z,9.73
2023-03-16T10:44:48.176Z,11.95
2023-03-16T10:45:50.757Z,9.23
2023-03-16T10:46:53.401Z,10.89
2023-03-16T10:47:56.024Z,9.87
2023-03-16T10:48:58.736Z,10.42
2023-03-16T10:50:01.399Z,10.62
2023-03-16T10:51:03.971Z,11.91
2023-03-16T10:52:06.548Z,10.07
2023-03-16T10:53:09.108Z,10.46
2023-03-16T10:54:11.717Z,8.74
2023-03-16T10:55:14.276Z,9.19
2023-03-16T10:56:17.635Z,9.82
2023-03-16T10:57:20.198Z,9.77
2023-03-16T10:58:22.805Z,9.69
2023-03-16T10:59:25.322Z,9.43
2023-03-16T11:00:28.093Z,8.92
2023-03-16T11:01:30.757Z,10.34
2023-03-16T11:02:33.478Z,10.68
2023-03-16T11:03:37.188Z,9.85
2023-03-16T11:04:40.768Z,11.22
2023-03-16T11:05:47.262Z,25.09
2023-03-16T11:06:50.151Z,16.00
2023-03-16T11:07:52.727Z,15.55
2023-03-16T11:08:55.339Z,12.61
2023-03-16T11:09:57.927Z,11.37
2023-03-16T11:11:00.588Z,10.54
2023-03-16T11:12:03.146Z,11.29
2023-03-16T11:13:05.638Z,9.86
2023-03-16T11:14:08.206Z,10.20
2023-03-16T11:15:20.130Z,10.20
2023-03-16T11:16:15.359Z,9.86
2023-03-16T11:17:17.932Z,10.24
2023-03-16T11:18:20.529Z,9.99
2023-03-16T11:19:23.129Z,10.73
2023-03-16T11:20:25.935Z,10.47
2023-03-16T11:21:28.512Z,10.16
2023-03-16T11:22:31.068Z,10.23
2023-03-16T11:23:33.614Z,10.31
2023-03-16T11:24:36.384Z,9.31
2023-03-16T11:25:38.989Z,10.92
2023-03-16T11:26:41.537Z,10.11
2023-03-16T11:27:43.998Z,10.67
2023-03-16T11:28:46.452Z,11.37
2023-03-16T11:29:49.032Z,11.73
2023-03-16T11:30:52.054Z,12.46
2023-03-16T11:31:54.954Z,10.86
2023-03-16T11:32:57.674Z,11.55
2023-03-16T11:34:00.282Z,12.54
2023-03-16T11:35:02.841Z,12.04
2023-03-16T11:36:05.676Z,11.27
2023-03-16T11:37:08.210Z,11.95
2023-03-16T11:38:10.892Z,12.43
2023-03-16T11:39:13.439Z,12.41
2023-03-16T11:40:16.614Z,12.24
2023-03-16T11:41:19.244Z,10.59
2023-03-16T11:42:21.800Z,11.31
2023-03-16T11:43:24.365Z,13.37
2023-03-16T11:44:26.950Z,13.99
2023-03-16T11:45:29.768Z,13.42
2023-03-16T11:46:32.705Z,13.79
2023-03-16T11:47:35.332Z,14.59
2023-03-16T11:48:37.963Z,14.04
2023-03-16T11:49:40.527Z,15.72
2023-03-16T11:50:43.309Z,15.52
2023-03-16T11:51:45.918Z,17.63
2023-03-16T11:52:48.530Z,16.54
2023-03-16T11:53:51.135Z,18.86
2023-03-16T11:54:53.666Z,15.84
2023-03-16T11:55:56.240Z,15.87
2023-03-16T11:56:58.944Z,12.08
2023-03-16T11:58:01.514Z,11.82
2023-03-16T11:59:04.089Z,12.79
2023-03-16T12:00:06.959Z,12.51
2023-03-16T12:01:09.523Z,11.82
2023-03-16T12:02:12.165Z,13.28
2023-03-16T12:03:15.110Z,14.68
2023-03-16T12:04:18.106Z,13.03
2023-03-16T12:05:20.678Z,12.63
2023-03-16T12:06:24.041Z,11.38
2023-03-16T12:07:27.067Z,13.87
2023-03-16T12:08:29.629Z,13.15
2023-03-16T12:09:32.094Z,12.26
2023-03-16T12:10:34.959Z,14.36
2023-03-16T12:11:37.571Z,14.64
2023-03-16T12:12:40.102Z,13.29
2023-03-16T12:13:42.661Z,14.44
2023-03-16T12:14:45.242Z,14.54
2023-03-16T12:15:47.908Z,14.91
2023-03-16T12:16:50.605Z,14.07
2023-03-16T12:17:53.159Z,14.52
2023-03-16T12:18:55.729Z,14.58
2023-03-16T12:19:58.296Z,11.25
2023-03-16T12:21:00.952Z,11.27
2023-03-16T12:22:03.461Z,12.13
2023-03-16T12:23:06.080Z,12.42
2023-03-16T12:24:08.622Z,11.79
2023-03-16T12:25:11.192Z,14.68
2023-03-16T12:26:14.017Z,13.69
2023-03-16T12:27:16.580Z,13.87
2023-03-16T12:28:19.252Z,10.92
2023-03-16T12:29:21.742Z,10.37
2023-03-16T12:30:24.727Z,11.20
2023-03-16T12:31:27.336Z,11.17
2023-03-16T12:32:30.076Z,12.30
2023-03-16T12:33:32.692Z,14.34
2023-03-16T12:34:35.219Z,12.49
2023-03-16T12:35:37.850Z,12.16
2023-03-16T12:36:40.494Z,10.07
2023-03-16T12:37:43.061Z,13.72
2023-03-16T12:38:45.655Z,12.93
2023-03-16T12:39:48.184Z,13.73
2023-03-16T12:40:50.738Z,13.63
2023-03-16T12:41:53.341Z,13.21
2023-03-16T12:42:55.905Z,12.15
2023-03-16T12:43:58.777Z,12.53
2023-03-16T12:45:01.290Z,11.63
2023-03-16T12:46:03.924Z,12.67
2023-03-16T12:47:06.507Z,15.21
2023-03-16T12:48:09.116Z,18.35
2023-03-16T12:49:11.762Z,22.22
2023-03-16T12:50:14.490Z,17.41
2023-03-16T12:51:17.051Z,21.49
2023-03-16T12:52:19.672Z,20.31
2023-03-16T12:53:22.158Z,20.05
2023-03-16T12:54:24.667Z,21.83
2023-03-16T12:55:27.366Z,16.22
2023-03-16T12:56:30.507Z,19.22
2023-03-16T12:57:33.075Z,17.27
2023-03-16T12:58:35.637Z,15.27
2023-03-16T12:59:38.238Z,16.05
2023-03-16T13:00:41.012Z,16.36
2023-03-16T13:01:44.062Z,17.99
2023-03-16T13:02:46.598Z,17.21
2023-03-16T13:03:49.103Z,13.06
2023-03-16T13:04:52.006Z,15.15
2023-03-16T13:05:54.869Z,14.02
2023-03-16T13:06:57.812Z,15.78
2023-03-16T13:08:00.371Z,14.12
2023-03-16T13:09:02.992Z,13.62
2023-03-16T13:10:05.865Z,16.28
2023-03-16T13:11:08.428Z,16.69
2023-03-16T13:12:11.623Z,16.19
2023-03-16T13:13:15.414Z,14.16
2023-03-16T13:14:17.966Z,13.17
2023-03-16T13:15:20.505Z,14.77
2023-03-16T13:16:23.441Z,14.38
2023-03-16T13:17:26.121Z,14.79
2023-03-16T13:18:28.730Z,13.09
2023-03-16T13:19:31.402Z,10.61
2023-03-16T13:20:34.645Z,12.71
2023-03-16T13:21:37.709Z,10.86
2023-03-16T13:22:40.289Z,11.17
2023-03-16T13:23:42.862Z,11.70
2023-03-16T13:24:45.422Z,11.53
2023-03-16T13:25:47.921Z,12.56
2023-03-16T13:26:50.943Z,13.86
2023-03-16T13:27:53.548Z,15.72
2023-03-16T13:28:56.106Z,14.59
2023-03-16T13:29:58.693Z,13.49
2023-03-16T13:31:01.432Z,14.42
2023-03-16T13:32:04.381Z,14.87
2023-03-16T13:33:07.368Z,13.18
2023-03-16T13:34:10.047Z,14.81
2023-03-16T13:35:12.617Z,14.06
2023-03-16T13:36:15.656Z,15.64
2023-03-16T13:37:18.393Z,15.09
2023-03-16T13:38:20.963Z,14.51
2023-03-16T13:39:23.533Z,15.90
2023-03-16T13:40:26.301Z,15.39
2023-03-16T13:41:28.856Z,15.24
2023-03-16T13:42:31.575Z,16.68
2023-03-16T13:43:34.376Z,21.51
2023-03-16T13:44:36.957Z,18.79